createdAt,value
2018-03-29T00:01:38.251Z,37.50
2018-03-29T00:04:06.874Z,37.50
2018-03-29T00:06:35.154Z,37.50
2018-03-29T00:09:03.461Z,37.50
2018-03-29T00:11:31.794Z,37.40
2018-03-29T00:14:00.082Z,37.40
2018-03-29T00:16:28.385Z,37.40
2018-03-29T00:18:57.076Z,37.20
2018-03-29T00:21:25.362Z,37.20
2018-03-29T00:23:53.695Z,37.20
2018-03-29T00:26:21.995Z,37.20
2018-03-29T00:28:50.296Z,37.20
2018-03-29T00:31:18.576Z,37.20
2018-03-29T00:33:47.211Z,37.20
2018-03-29T00:36:15.492Z,37.10
2018-03-29T00:38:43.767Z,37.10
2018-03-29T00:41:12.145Z,37.10
2018-03-29T00:43:40.444Z,37.10
2018-03-29T00:46:09.115Z,36.90
2018-03-29T00:48:37.438Z,36.90
2018-03-29T00:51:05.740Z,36.90
2018-03-29T00:53:44.846Z,36.90
2018-03-29T00:56:13.138Z,36.90
2018-03-29T00:58:41.447Z,36.90
2018-03-29T01:01:09.808Z,36.90
2018-03-29T01:03:38.079Z,36.90
2018-03-29T01:06:06.366Z,36.90
2018-03-29T01:08:35.680Z,36.90
2018-03-29T01:11:04.366Z,36.80
2018-03-29T01:13:32.957Z,36.80
2018-03-29T01:16:01.666Z,36.80
2018-03-29T01:18:29.952Z,36.80
2018-03-29T01:20:58.249Z,36.80
2018-03-29T01:23:26.565Z,36.80
2018-03-29T01:25:54.864Z,36.80
2018-03-29T01:28:23.552Z,36.80
2018-03-29T01:30:51.864Z,36.80
2018-03-29T01:33:20.153Z,36.80
2018-03-29T01:35:48.434Z,36.80
2018-03-29T01:38:16.766Z,36.80
2018-03-29T01:40:45.305Z,36.80
2018-03-29T01:43:13.622Z,36.80
2018-03-29T01:45:41.944Z,36.80
2018-03-29T01:48:10.232Z,36.60
2018-03-29T01:50:38.597Z,36.60
2018-03-29T01:53:06.911Z,36.60
2018-03-29T01:55:35.591Z,36.80
2018-03-29T01:58:03.876Z,36.60
2018-03-29T02:00:32.567Z,36.60
2018-03-29T02:03:01.243Z,36.60
2018-03-29T02:05:29.925Z,36.60
2018-03-29T02:07:58.255Z,36.60
2018-03-29T02:10:26.563Z,36.60
2018-03-29T02:12:54.842Z,36.80
2018-03-29T02:15:23.153Z,36.80
2018-03-29T02:17:51.451Z,36.80
2018-03-29T02:20:19.741Z,36.80
2018-03-29T02:22:48.058Z,36.80
2018-03-29T02:25:16.379Z,36.80
2018-03-29T02:27:44.672Z,36.80
2018-03-29T02:30:13.016Z,36.80
2018-03-29T02:32:41.299Z,36.80
2018-03-29T02:35:09.626Z,36.80
2018-03-29T02:37:38.417Z,36.80
2018-03-29T02:40:06.700Z,36.80
2018-03-29T02:42:35.027Z,36.80
2018-03-29T02:45:03.336Z,36.80
2018-03-29T02:47:32.078Z,36.90
2018-03-29T02:50:00.390Z,36.90
2018-03-29T02:52:28.728Z,36.90
2018-03-29T02:54:57.044Z,36.90
2018-03-29T02:57:25.401Z,36.90
2018-03-29T02:59:53.703Z,37.10
2018-03-29T03:02:21.986Z,37.10
2018-03-29T03:04:50.293Z,37.10
2018-03-29T03:07:19.005Z,37.20
2018-03-29T03:09:47.315Z,37.20
2018-03-29T03:12:15.593Z,37.20
2018-03-29T03:14:43.916Z,37.20
2018-03-29T03:17:12.614Z,37.10
2018-03-29T03:19:40.899Z,37.10
2018-03-29T03:22:09.279Z,37.10
2018-03-29T03:24:37.563Z,37.10
2018-03-29T03:27:06.094Z,37.10
2018-03-29T03:29:34.407Z,36.90
2018-03-29T03:32:02.690Z,36.90
2018-03-29T03:34:31.423Z,36.90
2018-03-29T03:36:59.800Z,36.90
2018-03-29T03:39:28.075Z,36.90
2018-03-29T03:41:56.373Z,36.90
2018-03-29T03:44:24.787Z,36.90
2018-03-29T03:46:53.122Z,36.90
2018-03-29T03:49:21.407Z,36.80
2018-03-29T03:51:50.107Z,36.90
2018-03-29T03:54:18.864Z,36.90
2018-03-29T03:56:47.134Z,36.90
2018-03-29T03:59:15.463Z,36.90
2018-03-29T04:01:43.748Z,36.80
2018-03-29T04:04:12.019Z,36.90
2018-03-29T04:06:40.335Z,37.10
2018-03-29T04:09:08.611Z,37.10
2018-03-29T04:11:37.106Z,37.10
2018-03-29T04:14:05.452Z,37.20
2018-03-29T04:16:33.757Z,37.10
2018-03-29T04:19:02.045Z,37.10
2018-03-29T04:21:30.364Z,37.10
2018-03-29T04:23:58.645Z,37.10
2018-03-29T04:26:26.980Z,36.90
2018-03-29T04:28:55.316Z,36.90
2018-03-29T04:31:23.615Z,36.90
2018-03-29T04:33:51.896Z,36.90
2018-03-29T04:36:20.263Z,36.90
2018-03-29T04:38:48.534Z,36.90
2018-03-29T04:41:16.815Z,36.80
2018-03-29T04:43:45.119Z,36.80
2018-03-29T04:46:13.800Z,36.80
2018-03-29T04:48:42.478Z,36.80
2018-03-29T04:51:10.782Z,36.80
2018-03-29T04:53:39.067Z,36.80
2018-03-29T04:56:07.363Z,36.80
2018-03-29T04:58:35.720Z,36.80
2018-03-29T05:01:04.011Z,36.80
2018-03-29T05:03:32.314Z,36.80
2018-03-29T05:06:00.664Z,36.80
2018-03-29T05:08:28.973Z,36.80
2018-03-29T05:10:57.280Z,36.80
2018-03-29T05:13:25.604Z,36.80
2018-03-29T05:15:53.902Z,36.80
2018-03-29T05:18:23.043Z,36.80
2018-03-29T05:20:52.034Z,36.60
2018-03-29T05:23:20.726Z,36.80
2018-03-29T05:25:50.500Z,36.80
2018-03-29T05:28:18.839Z,36.80
2018-03-29T05:30:47.172Z,36.80
2018-03-29T05:33:15.503Z,36.60
2018-03-29T05:35:43.805Z,36.80
2018-03-29T05:38:12.097Z,36.80
2018-03-29T05:40:40.450Z,36.80
2018-03-29T05:43:08.762Z,36.80
2018-03-29T05:45:37.440Z,36.60
2018-03-29T05:48:05.794Z,36.60
2018-03-29T05:50:34.071Z,36.60
2018-03-29T05:53:02.367Z,36.60
2018-03-29T05:55:30.680Z,36.60
2018-03-29T05:57:58.960Z,36.60
2018-03-29T06:00:27.310Z,36.50
2018-03-29T06:02:55.620Z,36.50
2018-03-29T06:05:23.908Z,36.50
2018-03-29T06:07:52.300Z,36.50
2018-03-29T06:10:20.618Z,36.30
2018-03-29T06:12:48.895Z,36.30
2018-03-29T06:15:17.198Z,36.30
2018-03-29T06:17:51.173Z,36.30
2018-03-29T06:20:19.567Z,36.30
2018-03-29T06:22:48.246Z,36.30
2018-03-29T06:25:16.809Z,36.30
2018-03-29T06:27:45.939Z,36.30
2018-03-29T06:30:14.599Z,36.30
2018-03-29T06:32:42.926Z,36.30
2018-03-29T06:35:13.735Z,36.30
2018-03-29T06:37:42.443Z,36.30
2018-03-29T06:40:10.731Z,36.30
2018-03-29T06:42:39.357Z,36.30
2018-03-29T06:45:08.047Z,36.30
2018-03-29T06:47:37.200Z,36.30
2018-03-29T06:50:05.523Z,36.20
2018-03-29T06:52:33.806Z,36.30
2018-03-29T06:55:02.471Z,36.20
2018-03-29T06:57:31.479Z,36.20
2018-03-29T06:59:59.763Z,36.20
2018-03-29T07:02:28.434Z,36.20
2018-03-29T07:04:57.673Z,36.20
2018-03-29T07:07:26.306Z,36.20
2018-03-29T07:09:54.560Z,36.20
2018-03-29T07:12:22.883Z,36.20
2018-03-29T07:14:51.692Z,36.20
2018-03-29T07:17:20.085Z,36.00
2018-03-29T07:19:49.007Z,36.00
2018-03-29T07:22:17.384Z,35.90
2018-03-29T07:24:45.738Z,36.00
2018-03-29T07:27:14.141Z,36.00
2018-03-29T07:29:42.480Z,35.90
2018-03-29T07:32:10.857Z,35.70
2018-03-29T07:34:39.180Z,35.90
2018-03-29T07:37:07.660Z,35.90
2018-03-29T07:39:35.987Z,35.70
2018-03-29T07:42:05.544Z,35.70
2018-03-29T07:44:33.996Z,35.70
2018-03-29T07:47:02.366Z,35.70
2018-03-29T07:49:30.660Z,35.60
2018-03-29T07:51:58.950Z,35.70
2018-03-29T07:54:27.268Z,35.60
2018-03-29T07:56:55.943Z,35.60
2018-03-29T07:59:24.272Z,35.60
2018-03-29T08:01:53.278Z,35.40
2018-03-29T08:04:21.660Z,35.40
2018-03-29T08:06:49.935Z,35.40
2018-03-29T08:09:18.232Z,35.40
2018-03-29T08:11:46.512Z,35.30
2018-03-29T08:14:15.092Z,35.30
2018-03-29T08:16:43.390Z,35.30
2018-03-29T08:19:11.829Z,35.30
2018-03-29T08:21:40.199Z,35.30
2018-03-29T08:24:08.920Z,35.10
2018-03-29T08:26:37.243Z,35.10
2018-03-29T08:29:05.654Z,35.10
2018-03-29T08:31:34.035Z,35.10
2018-03-29T08:34:03.127Z,35.10
2018-03-29T08:36:31.459Z,35.10
2018-03-29T08:38:59.763Z,35.10
2018-03-29T08:41:28.089Z,35.00
2018-03-29T08:43:56.374Z,35.00
2018-03-29T08:46:25.363Z,34.80
2018-03-29T08:48:54.088Z,35.00
2018-03-29T08:51:22.403Z,35.00
2018-03-29T08:53:51.126Z,34.80
2018-03-29T08:56:23.668Z,34.70
2018-03-29T08:58:51.997Z,34.70
2018-03-29T09:01:20.304Z,34.70
2018-03-29T09:03:48.610Z,34.50
2018-03-29T09:06:17.534Z,34.50
2018-03-29T09:08:45.805Z,34.50
2018-03-29T09:11:14.135Z,34.50
2018-03-29T09:13:42.426Z,34.40
2018-03-29T09:16:10.708Z,34.40
2018-03-29T09:18:39.492Z,34.10
2018-03-29T09:21:08.475Z,34.10
2018-03-29T09:23:36.794Z,34.10
2018-03-29T09:26:05.084Z,34.00
2018-03-29T09:28:33.361Z,33.80
2018-03-29T09:31:01.768Z,33.50
2018-03-29T09:33:30.044Z,33.50
2018-03-29T09:35:58.343Z,33.20
2018-03-29T09:38:26.685Z,32.90
2018-03-29T09:40:54.981Z,32.20
2018-03-29T09:43:23.259Z,31.30
2018-03-29T09:45:51.543Z,30.60
2018-03-29T09:48:19.888Z,29.70
2018-03-29T09:50:48.170Z,28.90
2018-03-29T09:53:16.476Z,28.80
2018-03-29T09:55:44.765Z,28.60
2018-03-29T09:58:13.061Z,28.40
2018-03-29T10:00:41.828Z,28.20
2018-03-29T10:03:10.530Z,28.20
2018-03-29T10:05:39.219Z,28.10
2018-03-29T10:08:07.938Z,27.80
2018-03-29T10:10:36.213Z,27.80
2018-03-29T10:13:04.523Z,27.60
2018-03-29T10:15:33.283Z,27.00
2018-03-29T10:18:01.700Z,27.10
2018-03-29T10:20:30.394Z,27.00
2018-03-29T10:22:59.843Z,27.20
2018-03-29T10:25:28.202Z,27.20
2018-03-29T10:27:56.521Z,27.40
2018-03-29T10:30:24.969Z,27.50
2018-03-29T10:32:54.356Z,27.70
2018-03-29T10:35:22.783Z,28.60
2018-03-29T10:37:51.082Z,29.10
2018-03-29T10:40:19.383Z,29.20
2018-03-29T10:42:47.672Z,29.00
2018-03-29T10:45:15.980Z,29.00
2018-03-29T10:47:44.296Z,29.00
2018-03-29T10:50:12.583Z,29.20
2018-03-29T10:52:41.299Z,29.10
2018-03-29T10:55:09.596Z,29.10
2018-03-29T10:57:39.303Z,29.50
2018-03-29T11:00:08.497Z,29.50
2018-03-29T11:02:37.037Z,29.70
2018-03-29T11:05:05.713Z,29.90
2018-03-29T11:07:34.470Z,30.10
2018-03-29T11:10:02.758Z,30.10
2018-03-29T11:15:05.873Z,30.40
2018-03-29T11:17:34.269Z,30.40
2018-03-29T11:20:03.875Z,30.80
2018-03-29T11:22:32.825Z,30.80
2018-03-29T11:25:01.333Z,31.00
2018-03-29T11:27:29.641Z,31.00
2018-03-29T11:29:57.958Z,31.00
2018-03-29T11:32:26.360Z,31.30
2018-03-29T11:34:54.740Z,31.10
2018-03-29T11:37:23.023Z,31.30
2018-03-29T11:39:51.395Z,31.40
2018-03-29T11:42:20.339Z,31.40
2018-03-29T11:44:49.483Z,31.60
2018-03-29T11:47:18.215Z,31.40
2018-03-29T11:49:46.513Z,31.40
2018-03-29T11:52:15.508Z,31.40
2018-03-29T11:54:43.796Z,31.40
2018-03-29T11:57:12.080Z,31.40
2018-03-29T11:59:40.446Z,31.30
2018-03-29T12:02:08.825Z,31.30
2018-03-29T12:04:37.134Z,31.10
2018-03-29T12:07:05.898Z,31.10
2018-03-29T12:09:35.702Z,31.10
2018-03-29T12:12:04.416Z,31.10
2018-03-29T12:14:32.704Z,31.10
2018-03-29T12:17:01.406Z,31.30
2018-03-29T12:19:29.699Z,31.30
2018-03-29T12:21:58.005Z,31.40
2018-03-29T12:27:00.774Z,31.60
2018-03-29T12:29:29.093Z,31.70
2018-03-29T12:31:57.384Z,31.70
2018-03-29T12:34:26.068Z,31.60
2018-03-29T12:36:54.967Z,31.60
2018-03-29T12:39:24.038Z,31.60
2018-03-29T12:41:52.470Z,31.70
2018-03-29T12:44:21.482Z,31.90
2018-03-29T12:46:49.778Z,31.90
2018-03-29T12:49:18.111Z,31.90
2018-03-29T12:51:46.464Z,31.90
2018-03-29T12:54:14.875Z,32.00
2018-03-29T12:56:55.028Z,31.90
2018-03-29T12:59:23.773Z,31.60
2018-03-29T13:01:52.184Z,31.10
2018-03-29T13:04:20.492Z,30.80
2018-03-29T13:06:48.765Z,30.60
2018-03-29T13:09:17.122Z,30.40
2018-03-29T13:11:45.418Z,30.40
2018-03-29T13:14:13.720Z,30.30
2018-03-29T13:16:42.137Z,30.30
2018-03-29T13:19:10.438Z,30.30
2018-03-29T13:21:38.730Z,30.10
2018-03-29T13:24:07.029Z,30.10
2018-03-29T13:26:35.306Z,29.90
2018-03-29T13:29:03.605Z,30.10
2018-03-29T13:31:32.361Z,30.30
2018-03-29T13:34:00.725Z,30.30
2018-03-29T13:36:29.090Z,30.40
2018-03-29T13:38:57.437Z,30.30
2018-03-29T13:41:25.884Z,30.60
2018-03-29T13:43:54.562Z,30.60
2018-03-29T13:46:22.922Z,30.40
2018-03-29T13:48:51.385Z,30.40
2018-03-29T13:51:20.459Z,30.40
2018-03-29T13:53:48.850Z,30.40
2018-03-29T13:56:17.162Z,30.40
2018-03-29T13:58:45.496Z,30.40
2018-03-29T14:01:13.776Z,30.40
2018-03-29T14:03:42.082Z,30.40
2018-03-29T14:06:10.379Z,30.30
2018-03-29T14:08:39.123Z,30.30
2018-03-29T14:11:07.440Z,30.30
2018-03-29T14:13:35.816Z,30.40
2018-03-29T14:16:04.594Z,30.60
2018-03-29T14:18:32.876Z,30.60
2018-03-29T14:21:01.197Z,30.40
2018-03-29T14:23:29.907Z,30.60
2018-03-29T14:25:58.221Z,30.40
2018-03-29T14:28:26.560Z,30.40
2018-03-29T14:30:54.882Z,30.40
2018-03-29T14:33:23.199Z,30.60
2018-03-29T14:35:51.536Z,30.60
2018-03-29T14:38:19.872Z,30.60
2018-03-29T14:40:48.184Z,30.60
2018-03-29T14:43:16.511Z,30.60
2018-03-29T14:45:44.800Z,30.60
2018-03-29T14:48:13.072Z,30.60
2018-03-29T14:50:41.716Z,30.60
2018-03-29T14:53:10.003Z,30.40
2018-03-29T14:55:38.346Z,30.40
2018-03-29T14:58:07.147Z,30.30
2018-03-29T15:00:36.165Z,30.30
2018-03-29T15:03:04.708Z,29.90
2018-03-29T15:05:33.059Z,29.80
2018-03-29T15:08:01.394Z,29.70
2018-03-29T15:10:30.892Z,29.60
2018-03-29T15:12:59.666Z,29.60
2018-03-29T15:15:27.975Z,29.40
2018-03-29T15:17:56.342Z,29.30
2018-03-29T15:20:24.640Z,29.50
2018-03-29T15:22:52.975Z,29.50
2018-03-29T15:25:21.342Z,29.50
2018-03-29T15:27:50.468Z,29.60
2018-03-29T15:30:18.765Z,29.70
2018-03-29T15:32:47.324Z,29.70
2018-03-29T15:35:16.264Z,29.70
2018-03-29T15:37:44.608Z,29.80
2018-03-29T15:40:13.344Z,29.90
2018-03-29T15:42:41.622Z,29.90
2018-03-29T15:45:09.928Z,29.90
2018-03-29T15:47:38.328Z,29.90
2018-03-29T15:50:06.694Z,29.90
2018-03-29T15:52:35.017Z,29.90
2018-03-29T15:55:03.313Z,30.10
2018-03-29T15:57:31.659Z,30.10
2018-03-29T16:00:00.027Z,30.30
2018-03-29T16:02:28.614Z,30.30
2018-03-29T16:04:56.970Z,30.60
2018-03-29T16:07:25.548Z,30.70
2018-03-29T16:09:53.866Z,30.60
2018-03-29T16:12:22.149Z,30.70
2018-03-29T16:14:50.446Z,30.70
2018-03-29T16:17:20.035Z,30.70
2018-03-29T16:19:48.324Z,30.80
2018-03-29T16:22:16.641Z,30.80
2018-03-29T16:24:44.976Z,30.80
2018-03-29T16:27:13.255Z,30.80
2018-03-29T16:29:41.780Z,30.80
2018-03-29T16:32:10.174Z,30.80
2018-03-29T16:34:38.469Z,31.00
2018-03-29T16:37:07.075Z,31.00
2018-03-29T16:39:35.409Z,31.00
2018-03-29T16:42:03.718Z,31.00
2018-03-29T16:44:32.035Z,31.00
2018-03-29T16:47:00.384Z,31.10
2018-03-29T16:49:28.674Z,31.10
2018-03-29T16:51:56.956Z,31.10
2018-03-29T16:54:25.287Z,31.30
2018-03-29T16:56:53.581Z,31.30
2018-03-29T16:59:21.936Z,31.30
2018-03-29T17:01:50.253Z,31.40
2018-03-29T17:04:18.539Z,31.40
2018-03-29T17:06:46.860Z,31.60
2018-03-29T17:09:15.590Z,31.70
2018-03-29T17:11:43.894Z,31.60
2018-03-29T17:14:12.184Z,31.70
2018-03-29T17:16:40.536Z,31.90
2018-03-29T17:19:08.816Z,31.90
2018-03-29T17:21:37.121Z,31.90
2018-03-29T17:24:05.430Z,32.00
2018-03-29T17:26:33.722Z,32.20
2018-03-29T17:29:02.578Z,32.30
2018-03-29T17:31:31.013Z,32.30
2018-03-29T17:33:59.329Z,32.50
2018-03-29T17:36:28.000Z,32.50
2018-03-29T17:38:56.347Z,32.50
2018-03-29T17:41:24.645Z,32.60
2018-03-29T17:43:53.379Z,32.60
2018-03-29T17:46:21.703Z,32.60
2018-03-29T17:48:50.433Z,32.80
2018-03-29T17:51:18.877Z,32.80
2018-03-29T17:53:47.167Z,32.80
2018-03-29T17:56:15.880Z,32.90
2018-03-29T17:58:44.224Z,32.90
2018-03-29T18:01:12.545Z,32.90
2018-03-29T18:03:41.800Z,32.90
2018-03-29T18:06:10.379Z,32.90
2018-03-29T18:08:39.088Z,33.10
2018-03-29T18:11:07.765Z,33.10
2018-03-29T18:13:36.099Z,33.10
2018-03-29T18:16:04.410Z,33.10
2018-03-29T18:18:33.398Z,33.20
2018-03-29T18:21:01.718Z,33.20
2018-03-29T18:23:30.023Z,33.20
2018-03-29T18:25:58.314Z,33.20
2018-03-29T18:28:26.904Z,33.20
2018-03-29T18:30:55.684Z,33.40
2018-03-29T18:33:24.613Z,33.40
2018-03-29T18:35:53.542Z,33.40
2018-03-29T18:38:21.874Z,33.40
2018-03-29T18:40:50.181Z,33.40
2018-03-29T18:43:18.460Z,33.40
2018-03-29T18:45:46.749Z,33.40
2018-03-29T18:48:15.124Z,33.50
2018-03-29T18:50:43.498Z,33.70
2018-03-29T18:53:11.785Z,33.70
2018-03-29T18:55:40.135Z,33.70
2018-03-29T18:58:08.479Z,33.70
2018-03-29T19:00:36.770Z,33.70
2018-03-29T19:03:05.084Z,33.70
2018-03-29T19:05:33.445Z,33.70
2018-03-29T19:08:01.724Z,33.70
2018-03-29T19:10:30.006Z,33.70
2018-03-29T19:12:58.319Z,33.70
2018-03-29T19:15:26.946Z,33.70
2018-03-29T19:17:55.275Z,33.70
2018-03-29T19:20:23.558Z,33.70
2018-03-29T19:22:51.881Z,33.80
2018-03-29T19:25:20.837Z,33.80
2018-03-29T19:27:49.119Z,33.80
2018-03-29T19:30:17.406Z,33.80
2018-03-29T19:32:45.854Z,33.80
2018-03-29T19:35:14.158Z,33.80
2018-03-29T19:37:43.330Z,33.80
2018-03-29T19:40:11.625Z,33.80
2018-03-29T19:42:40.381Z,33.80
2018-03-29T19:45:08.659Z,33.80
2018-03-29T19:47:36.991Z,33.80
2018-03-29T19:50:05.696Z,33.80
2018-03-29T19:52:34.046Z,33.80
2018-03-29T19:55:03.015Z,33.80
2018-03-29T19:57:31.326Z,33.80
2018-03-29T20:00:00.001Z,33.80
2018-03-29T20:02:28.712Z,33.80
2018-03-29T20:04:57.015Z,33.80
2018-03-29T20:07:25.328Z,33.80
2018-03-29T20:09:53.654Z,33.80
2018-03-29T20:12:21.938Z,33.80
2018-03-29T20:14:50.235Z,33.80
2018-03-29T20:17:18.587Z,33.80
2018-03-29T20:19:46.868Z,33.80
2018-03-29T20:22:15.253Z,33.80
2018-03-29T20:24:43.645Z,33.80
2018-03-29T20:27:11.921Z,33.80
2018-03-29T20:29:40.264Z,33.80
2018-03-29T20:32:08.797Z,34.00
2018-03-29T20:34:38.324Z,34.00
2018-03-29T20:37:07.026Z,34.00
2018-03-29T20:39:35.335Z,34.00
2018-03-29T20:42:03.611Z,33.80
2018-03-29T20:44:31.912Z,34.00
2018-03-29T20:47:00.290Z,34.00
2018-03-29T20:49:29.887Z,34.70
2018-03-29T20:51:58.248Z,35.00
2018-03-29T20:54:26.559Z,34.50
2018-03-29T20:56:54.848Z,34.40
2018-03-29T20:59:23.168Z,34.40
2018-03-29T21:01:51.479Z,34.40
2018-03-29T21:04:20.683Z,34.40
2018-03-29T21:06:49.552Z,34.40
2018-03-29T21:09:17.921Z,34.40
2018-03-29T21:11:46.638Z,52.60
2018-03-29T21:14:14.987Z,50.20
2018-03-29T21:16:43.599Z,47.50
2018-03-29T21:19:11.879Z,46.80
2018-03-29T21:21:40.171Z,53.20
2018-03-29T21:24:08.454Z,53.30
2018-03-29T21:26:37.121Z,51.80
2018-03-29T21:29:05.904Z,51.80
2018-03-29T21:31:34.178Z,50.90
2018-03-29T21:34:02.501Z,50.40
2018-03-29T21:36:30.804Z,49.20
2018-03-29T21:38:59.111Z,47.50
2018-03-29T21:41:27.416Z,46.70
2018-03-29T21:43:56.090Z,43.60
2018-03-29T21:46:24.830Z,42.80
2018-03-29T21:48:53.144Z,42.70
2018-03-29T21:51:21.447Z,42.50
2018-03-29T21:53:49.736Z,42.20
2018-03-29T21:56:18.051Z,42.10
2018-03-29T21:58:47.732Z,41.90
2018-03-29T22:01:17.717Z,41.80
2018-03-29T22:03:46.523Z,41.20
2018-03-29T22:06:15.017Z,41.20
2018-03-29T22:08:43.310Z,40.70
2018-03-29T22:11:11.583Z,40.60
2018-03-29T22:13:49.583Z,40.50
2018-03-29T22:16:17.903Z,40.30
2018-03-29T22:18:46.174Z,40.00
2018-03-29T22:21:14.676Z,39.90
2018-03-29T22:23:43.031Z,39.60
2018-03-29T22:26:11.340Z,39.60
2018-03-29T22:28:40.466Z,39.30
2018-03-29T22:31:08.987Z,39.30
2018-03-29T22:33:37.382Z,39.30
2018-03-29T22:36:06.058Z,39.00
2018-03-29T22:38:35.228Z,39.00
2018-03-29T22:41:03.826Z,38.80
2018-03-29T22:43:32.099Z,38.70
2018-03-29T22:46:00.869Z,38.50
2018-03-29T22:48:29.610Z,38.50
2018-03-29T22:50:58.345Z,38.40
2018-03-29T22:53:26.901Z,38.40
2018-03-29T22:55:55.491Z,38.40
2018-03-29T22:58:24.422Z,38.20
2018-03-29T23:00:53.069Z,38.20
2018-03-29T23:03:21.907Z,38.10
2018-03-29T23:05:50.884Z,38.10
2018-03-29T23:08:19.492Z,37.90
2018-03-29T23:10:47.836Z,37.80
2018-03-29T23:13:16.098Z,37.80
2018-03-29T23:15:44.378Z,37.80
2018-03-29T23:18:12.661Z,37.60
2018-03-29T23:20:41.163Z,37.60
2018-03-29T23:23:09.472Z,37.60
2018-03-29T23:25:37.777Z,37.60
2018-03-29T23:28:06.068Z,37.50
2018-03-29T23:30:34.367Z,37.50
2018-03-29T23:33:02.658Z,37.50
2018-03-29T23:35:31.158Z,37.50
2018-03-29T23:37:59.866Z,37.40
2018-03-29T23:40:28.172Z,37.40
2018-03-29T23:42:56.446Z,37.40
2018-03-29T23:45:24.747Z,37.40
2018-03-29T23:47:53.010Z,37.20
2018-03-29T23:50:21.291Z,37.20
2018-03-29T23:52:49.612Z,37.20
2018-03-29T23:55:18.155Z,37.20
2018-03-29T23:57:46.432Z,37.20
